Time;durP1;ratioP1;P1;durP2;ratioP2;P2;SDS_P1;SDS_P2;PMS_P1;PMS_P2;Temp;Humidity;BMP_temperature;BMP_pressure;BME280_temperature;BME280_humidity;BME280_pressure;Samples;Min_cycle;Max_cycle;Signal;HPM_P1;HPM_P2
2021/09/08 00:01:53;;;;;;;;;12.00;12.00;;;;;25.24;77.76;101304.72;5011933;28;45371;-78
2021/09/08 00:04:18;;;;;;;;;18.25;16.50;;;;;25.18;78.48;101302.44;5023780;28;45321;-76
2021/09/08 00:06:43;;;;;;;;;16.00;14.50;;;;;25.15;78.28;101293.78;5031341;28;45482;-77
2021/09/08 00:09:09;;;;;;;;;14.25;13.25;;;;;25.15;78.84;101302.66;5018986;28;46623;-77
2021/09/08 00:11:34;;;;;;;;;12.75;11.50;;;;;25.14;78.85;101297.41;5018755;28;45437;-77
2021/09/08 00:14:00;;;;;;;;;17.50;16.50;;;;;25.02;78.89;101285.72;5020189;28;45477;-79
2021/09/08 00:16:25;;;;;;;;;16.00;15.00;;;;;25.06;79.00;101297.91;5018927;28;45324;-77
2021/09/08 00:18:51;;;;;;;;;14.50;14.00;;;;;25.03;79.04;101295.44;5021088;28;46143;-77
2021/09/08 00:21:16;;;;;;;;;15.75;15.75;;;;;24.98;79.65;101286.84;5011298;28;45428;-78
2021/09/08 00:23:42;;;;;;;;;17.00;13.25;;;;;24.94;79.75;101278.19;5020193;28;45373;-78
2021/09/08 00:26:07;;;;;;;;;16.25;15.00;;;;;24.95;79.65;101281.69;5000152;28;45230;-76
2021/09/08 00:28:32;;;;;;;;;18.00;15.00;;;;;24.89;79.68;101266.06;5025347;28;45382;-78
2021/09/08 00:30:58;;;;;;;;;18.50;16.00;;;;;24.86;79.58;101266.25;5026091;28;45728;-77
2021/09/08 00:33:23;;;;;;;;;15.50;14.75;;;;;24.68;80.17;101238.97;5002381;28;45509;-77
2021/09/08 00:35:49;;;;;;;;;19.50;16.75;;;;;24.77;80.29;101256.19;4998364;28;45724;-78
2021/09/08 00:38:14;;;;;;;;;20.50;18.00;;;;;24.80;80.71;101266.66;5028257;28;46179;-75
2021/09/08 00:40:40;;;;;;;;;16.50;16.00;;;;;24.78;80.98;101261.44;5019241;28;45409;-77
2021/09/08 00:43:05;;;;;;;;;15.75;14.75;;;;;24.74;80.79;101258.09;5026990;28;45469;-78
2021/09/08 00:45:31;;;;;;;;;15.00;14.25;;;;;24.71;81.51;101252.13;5012299;28;45446;-76
2021/09/08 00:47:56;;;;;;;;;15.00;15.00;;;;;24.67;81.45;101243.44;5015151;28;46391;-77
2021/09/08 00:50:22;;;;;;;;;16.25;14.75;;;;;24.64;81.26;101243.63;5019291;28;45545;-78
2021/09/08 00:52:48;;;;;;;;;15.50;13.50;;;;;24.58;81.86;101232.50;5032766;28;45444;-78
2021/09/08 00:55:14;;;;;;;;;16.00;14.00;;;;;24.58;81.70;101232.50;5015138;28;45424;-78
2021/09/08 00:57:40;;;;;;;;;18.00;17.75;;;;;24.61;81.86;101249.16;5028244;28;46302;-78
2021/09/08 01:00:06;;;;;;;;;18.00;15.00;;;;;24.57;81.94;101241.47;4988239;28;45540;-77
2021/09/08 01:02:32;;;;;;;;;17.50;16.00;;;;;24.57;82.02;101246.81;5021257;28;45588;-72
2021/09/08 01:04:57;;;;;;;;;15.25;15.00;;;;;24.49;82.37;101235.78;5021176;28;45454;-77
2021/09/08 01:07:23;;;;;;;;;16.50;15.25;;;;;24.49;82.42;101244.63;5018099;28;45548;-78
2021/09/08 01:09:50;;;;;;;;;18.50;17.50;;;;;24.46;81.92;101239.50;5005703;28;45618;-77
2021/09/08 01:12:16;;;;;;;;;15.25;14.50;;;;;24.39;82.48;101238.16;5018603;28;45496;-78
2021/09/08 01:14:43;;;;;;;;;16.75;15.00;;;;;24.36;82.75;101239.22;5016420;28;45464;-78
2021/09/08 01:17:08;;;;;;;;;13.50;12.75;;;;;24.31;82.81;101236.00;5015262;28;45407;-77
2021/09/08 01:19:35;;;;;;;;;18.50;17.50;;;;;24.31;82.80;101233.31;5021505;28;45447;-78
2021/09/08 01:22:01;;;;;;;;;13.00;12.25;;;;;24.28;82.77;101228.19;5031679;28;45397;-80
2021/09/08 01:24:26;;;;;;;;;15.00;13.25;;;;;24.26;83.77;101224.72;5025184;28;45428;-78
2021/09/08 01:26:53;;;;;;;;;14.00;14.00;;;;;24.19;83.21;101219.84;5017355;28;46302;-78
2021/09/08 01:29:20;;;;;;;;;14.75;14.25;;;;;24.22;83.45;101225.88;5018306;28;45612;-79
2021/09/08 01:31:52;;;;;;;;;16.75;13.50;;;;;24.19;83.23;101219.84;5014729;28;45457;-78
2021/09/08 01:34:18;;;;;;;;;14.50;13.50;;;;;24.11;83.78;101213.19;4999820;28;45603;-78
2021/09/08 01:36:43;;;;;;;;;14.00;13.00;;;;;24.10;83.65;101222.16;5003635;28;45346;-79
2021/09/08 01:39:09;;;;;;;;;14.25;13.50;;;;;24.11;84.16;101215.88;5022103;28;45420;-79
2021/09/08 01:41:35;;;;;;;;;18.00;16.50;;;;;24.10;84.41;101215.97;5018486;28;45394;-78
2021/09/08 01:44:00;;;;;;;;;14.75;13.75;;;;;24.05;84.51;101218.94;5012366;28;45498;-78
2021/09/08 01:46:26;;;;;;;;;13.50;13.00;;;;;23.96;84.61;101206.16;4998956;28;45453;-78
2021/09/08 01:48:52;;;;;;;;;18.50;14.00;;;;;23.99;84.66;101214.00;4980081;28;45863;-79
2021/09/08 01:51:17;;;;;;;;;16.25;15.50;;;;;23.99;84.93;101208.66;4998138;28;45462;-78
2021/09/08 01:53:43;;;;;;;;;14.50;13.50;;;;;23.92;85.13;101203.78;4999111;28;45530;-78
2021/09/08 01:56:09;;;;;;;;;15.00;14.00;;;;;23.91;85.60;101202.06;4998120;28;45415;-77
2021/09/08 01:58:35;;;;;;;;;16.50;15.75;;;;;23.85;85.21;101194.44;4997796;28;45344;-79
2021/09/08 02:01:01;;;;;;;;;17.00;16.00;;;;;23.83;85.57;101200.75;4997993;28;45538;-79
2021/09/08 02:03:27;;;;;;;;;14.50;14.00;;;;;23.85;85.78;101197.13;4998161;28;45450;-78
2021/09/08 02:05:52;;;;;;;;;19.50;16.00;;;;;23.85;86.31;101205.13;5011021;28;46475;-78
2021/09/08 02:08:18;;;;;;;;;16.00;14.00;;;;;23.82;86.19;101204.38;4997832;28;45367;-78
2021/09/08 02:10:43;;;;;;;;;16.25;14.50;;;;;23.76;86.51;101191.41;4997576;28;46175;-79
2021/09/08 02:13:09;;;;;;;;;13.50;12.75;;;;;23.73;86.64;101186.25;4997877;28;45430;-78
2021/09/08 02:15:34;;;;;;;;;17.50;14.00;;;;;23.75;86.85;101188.81;4998588;28;45465;-78
2021/09/08 02:17:59;;;;;;;;;16.00;15.75;;;;;23.68;87.20;101176.81;4997590;28;45421;-79
2021/09/08 02:20:25;;;;;;;;;17.75;14.75;;;;;23.48;87.46;101144.22;5001929;28;45664;-78
2021/09/08 02:22:50;;;;;;;;;13.25;12.50;;;;;23.63;87.48;101169.13;4993029;28;45506;-76
2021/09/08 02:25:16;;;;;;;;;15.50;14.00;;;;;23.62;87.85;101166.56;4998160;28;46516;-78
2021/09/08 02:27:41;;;;;;;;;15.00;14.50;;;;;23.62;87.88;101169.22;4993375;28;45800;-78
2021/09/08 02:30:07;;;;;;;;;14.75;13.25;;;;;23.59;88.25;101172.06;4997603;28;45308;-78
2021/09/08 02:32:33;;;;;;;;;13.00;12.75;;;;;23.54;88.53;101169.66;4997444;28;45565;-78
2021/09/08 02:34:58;;;;;;;;;19.00;16.75;;;;;23.56;88.67;101172.25;4979376;28;46097;-78
2021/09/08 02:37:23;;;;;;;;;18.50;17.00;;;;;23.38;88.63;101137.75;4980583;28;45422;-79
2021/09/08 02:39:50;;;;;;;;;20.25;18.00;;;;;23.48;88.92;101149.56;4997171;28;45648;-80
2021/09/08 02:42:15;;;;;;;;;19.00;16.75;;;;;23.47;89.24;101153.16;4997412;28;45557;-78
2021/09/08 02:44:41;;;;;;;;;19.00;18.25;;;;;23.40;89.61;101138.50;4996784;28;47390;-78
2021/09/08 02:47:07;;;;;;;;;17.00;15.75;;;;;23.40;89.98;101146.50;5000897;28;45754;-78
2021/09/08 02:49:32;;;;;;;;;17.75;15.00;;;;;23.33;89.90;101139.84;5005761;28;45330;-79
2021/09/08 02:51:58;;;;;;;;;19.50;18.00;;;;;23.34;90.31;101141.56;4997097;28;45378;-78
2021/09/08 02:54:23;;;;;;;;;18.00;16.25;;;;;23.32;90.82;101151.47;4996731;28;47450;-79
2021/09/08 02:56:49;;;;;;;;;18.00;17.75;;;;;23.32;91.21;101145.28;4996762;28;45392;-78
2021/09/08 02:59:14;;;;;;;;;21.50;18.50;;;;;23.25;91.74;101143.91;4997883;28;45426;-78
2021/09/08 03:01:39;;;;;;;;;21.00;18.50;;;;;23.18;91.89;101127.44;4997162;28;45451;-79
2021/09/08 03:04:04;;;;;;;;;22.00;18.75;;;;;23.15;92.08;101127.66;4982900;28;45662;-78
2021/09/08 03:06:30;;;;;;;;;19.00;18.00;;;;;23.21;92.32;101138.78;4996885;28;45429;-79
2021/09/08 03:08:57;;;;;;;;;18.75;18.00;;;;;23.08;92.71;101119.16;4997621;28;45370;-78
2021/09/08 03:11:22;;;;;;;;;19.75;19.00;;;;;23.12;93.19;101125.16;4987908;28;45476;-78
2021/09/08 03:13:48;;;;;;;;;19.75;17.75;;;;;23.06;92.91;101113.06;4991688;28;45395;-77
2021/09/08 03:16:15;;;;;;;;;18.25;17.00;;;;;23.09;93.65;101120.88;4996702;28;45403;-77
2021/09/08 03:18:40;;;;;;;;;19.50;18.00;;;;;23.07;93.97;101122.75;4997778;28;45371;-78
2021/09/08 03:21:05;;;;;;;;;18.50;17.50;;;;;23.01;94.46;101120.47;4996522;28;45172;-79
2021/09/08 03:23:33;;;;;;;;;19.50;18.00;;;;;22.99;95.07;101124.19;4996435;28;46594;-78
2021/09/08 03:25:58;;;;;;;;;19.50;18.25;;;;;23.01;94.92;101128.47;4996284;28;45275;-79
2021/09/08 03:28:24;;;;;;;;;18.75;18.00;;;;;22.93;95.31;101109.44;4996657;28;45462;-79
2021/09/08 03:30:49;;;;;;;;;19.75;17.50;;;;;22.93;95.68;101114.75;4997509;28;45446;-78
2021/09/08 03:33:15;;;;;;;;;19.50;18.25;;;;;22.88;95.81;101109.72;4979065;28;46132;-79
2021/09/08 03:35:40;;;;;;;;;17.50;16.75;;;;;22.85;96.30;101098.38;4995892;28;45539;-79
2021/09/08 03:38:06;;;;;;;;;18.75;18.50;;;;;22.86;96.48;101098.31;4996129;28;45525;-79
2021/09/08 03:40:31;;;;;;;;;17.25;17.00;;;;;22.84;96.73;101109.97;4980182;28;45529;-79
2021/09/08 03:42:56;;;;;;;;;19.00;18.50;;;;;22.82;97.30;101096.75;4995648;28;46179;-78
2021/09/08 03:45:22;;;;;;;;;18.00;16.50;;;;;22.82;97.62;101098.53;5000732;28;45387;-77
2021/09/08 03:47:47;;;;;;;;;18.50;18.50;;;;;22.76;97.87;101094.41;5005471;28;45682;-79
2021/09/08 03:50:12;;;;;;;;;24.00;22.50;;;;;22.70;98.72;101075.31;4996272;28;45371;-79
2021/09/08 03:52:38;;;;;;;;;23.75;20.75;;;;;22.73;98.64;101077.78;4996950;28;46485;-79
2021/09/08 03:55:05;;;;;;;;;17.75;17.00;;;;;22.62;98.54;101057.09;4995900;28;45353;-77
2021/09/08 03:57:33;;;;;;;;;22.00;19.50;;;;;22.72;99.35;101087.56;4995902;28;45463;-79
2021/09/08 03:59:58;;;;;;;;;23.75;21.75;;;;;22.63;99.59;101074.78;4996344;28;45350;-79
2021/09/08 04:02:24;;;;;;;;;22.25;20.00;;;;;22.48;100.00;101054.41;4996884;28;45453;-78
2021/09/08 04:04:49;;;;;;;;;19.75;19.00;;;;;22.64;100.00;101079.19;4996378;28;45434;-78
2021/09/08 04:07:15;;;;;;;;;22.25;20.75;;;;;22.62;100.00;101076.59;4995842;28;45568;-78
2021/09/08 04:09:40;;;;;;;;;21.50;19.00;;;;;22.51;100.00;101060.41;4996251;28;45446;-79
2021/09/08 04:12:06;;;;;;;;;25.25;24.00;;;;;22.56;100.00;101068.13;4996157;28;45434;-78
2021/09/08 04:14:31;;;;;;;;;21.75;19.75;;;;;22.53;100.00;101065.66;4995840;28;45574;-79
2021/09/08 04:16:57;;;;;;;;;21.00;18.50;;;;;22.55;100.00;101074.38;4996110;28;45842;-79
2021/09/08 04:19:22;;;;;;;;;20.25;19.25;;;;;22.36;100.00;101044.47;4996084;28;45388;-79
2021/09/08 04:21:48;;;;;;;;;18.00;17.25;;;;;22.49;100.00;101066.78;4995551;28;45506;-78
2021/09/08 04:24:13;;;;;;;;;23.00;20.50;;;;;22.50;100.00;101073.81;4996583;28;45458;-80
2021/09/08 04:26:39;;;;;;;;;22.00;18.75;;;;;22.49;100.00;101067.63;4995858;28;45334;-79
2021/09/08 04:29:04;;;;;;;;;20.00;18.25;;;;;22.39;100.00;101057.59;4982005;28;45307;-79
2021/09/08 04:31:29;;;;;;;;;21.50;19.50;;;;;22.44;100.00;101068.84;4995487;28;46365;-78
2021/09/08 04:33:55;;;;;;;;;22.50;20.50;;;;;22.35;100.00;101050.75;4996609;28;45523;-79
2021/09/08 04:36:20;;;;;;;;;18.00;17.00;;;;;22.36;100.00;101055.13;4981732;28;46397;-77
2021/09/08 04:38:46;;;;;;;;;19.75;17.00;;;;;22.30;100.00;101062.53;4996067;28;45440;-80
2021/09/08 04:41:12;;;;;;;;;23.25;20.00;;;;;22.34;100.00;101067.66;4995349;28;45807;-79
2021/09/08 04:43:38;;;;;;;;;19.50;17.00;;;;;22.26;100.00;101068.97;4995108;28;45498;-79
2021/09/08 04:46:03;;;;;;;;;19.00;17.75;;;;;22.25;100.00;101064.59;4996502;28;45508;-79
2021/09/08 04:48:29;;;;;;;;;19.75;17.25;;;;;22.19;100.00;101059.63;5009041;28;45405;-79
2021/09/08 04:50:54;;;;;;;;;22.00;20.00;;;;;22.20;100.00;101061.34;5010125;28;47283;-79
2021/09/08 04:53:20;;;;;;;;;18.75;16.00;;;;;22.17;100.00;101061.50;4998993;28;45460;-78
2021/09/08 04:55:45;;;;;;;;;21.25;20.50;;;;;22.18;100.00;101060.59;4982305;28;45412;-78
2021/09/08 04:58:10;;;;;;;;;22.75;18.50;;;;;22.16;100.00;101073.09;5002095;28;45513;-78
2021/09/08 05:00:36;;;;;;;;;20.75;19.00;;;;;22.15;100.00;101066.06;4999626;28;45451;-79
2021/09/08 05:03:01;;;;;;;;;19.25;17.50;;;;;22.11;100.00;101056.53;4998659;28;45426;-78
2021/09/08 05:05:26;;;;;;;;;19.50;19.00;;;;;22.14;100.00;101074.97;5014063;28;45317;-78
2021/09/08 05:07:52;;;;;;;;;18.25;16.75;;;;;22.13;100.00;101067.94;5009293;28;45498;-79
2021/09/08 05:10:18;;;;;;;;;19.00;17.75;;;;;22.12;100.00;101071.56;4998763;28;45493;-78
2021/09/08 05:12:43;;;;;;;;;22.25;19.75;;;;;22.05;100.00;101054.25;4999676;28;45494;-75
2021/09/08 05:15:09;;;;;;;;;19.25;18.00;;;;;22.06;100.00;101052.44;4981182;28;45376;-79
2021/09/08 05:17:34;;;;;;;;;20.25;19.75;;;;;22.03;100.00;101050.78;4998595;28;45363;-79
2021/09/08 05:20:04;;;;;;;;;21.50;19.00;;;;;22.00;100.00;101043.84;4998387;28;45435;-73
2021/09/08 05:22:29;;;;;;;;;17.00;15.50;;;;;22.08;100.00;101067.34;5007153;28;45340;-72
2021/09/08 05:24:55;;;;;;;;;20.00;18.50;;;;;22.02;100.00;101051.72;4998686;28;45847;-74
2021/09/08 05:27:21;;;;;;;;;18.00;16.50;;;;;22.05;100.00;101059.56;4998166;28;45366;-72
2021/09/08 05:29:46;;;;;;;;;19.25;17.75;;;;;22.03;100.00;101053.44;4998113;28;46040;-74
2021/09/08 05:32:11;;;;;;;;;20.00;19.00;;;;;22.05;100.00;101061.38;4998858;28;45402;-75
2021/09/08 05:34:37;;;;;;;;;19.50;18.25;;;;;21.98;100.00;101050.19;5011873;28;45337;-74
2021/09/08 05:37:02;;;;;;;;;21.00;20.00;;;;;22.06;100.00;101063.94;4998229;28;45514;-75
2021/09/08 05:39:28;;;;;;;;;20.25;18.50;;;;;22.04;100.00;101054.28;4997882;28;45367;-75
2021/09/08 05:41:53;;;;;;;;;22.75;19.75;;;;;22.08;100.00;101067.34;5002271;28;45398;-70
2021/09/08 05:44:18;;;;;;;;;19.50;18.25;;;;;22.06;100.00;101057.75;5034194;28;45342;-75
2021/09/08 05:46:44;;;;;;;;;21.25;18.75;;;;;22.05;100.00;101048.06;5017817;28;45334;-77
2021/09/08 05:49:09;;;;;;;;;18.75;18.50;;;;;22.08;100.00;101053.22;5026823;28;46147;-74
2021/09/08 05:51:35;;;;;;;;;21.00;19.75;;;;;22.11;100.00;101050.38;5031446;28;45335;-73
2021/09/08 05:54:00;;;;;;;;;20.25;20.00;;;;;22.11;100.00;101053.03;5017736;28;45599;-75
2021/09/08 05:56:25;;;;;;;;;19.25;16.50;;;;;22.04;100.00;101038.34;5018156;28;45507;-72
2021/09/08 05:58:51;;;;;;;;;21.75;19.00;;;;;22.17;100.00;101055.31;5013302;28;47540;-73
2021/09/08 06:01:17;;;;;;;;;20.75;17.75;;;;;22.18;100.00;101060.59;5024365;28;45417;-74
2021/09/08 06:03:42;;;;;;;;;21.25;19.50;;;;;22.19;100.00;101062.31;5017276;28;45444;-70
2021/09/08 06:06:08;;;;;;;;;22.00;19.25;;;;;22.15;100.00;101039.47;5017744;28;45445;-73
2021/09/08 06:08:33;;;;;;;;;22.50;21.50;;;;;22.22;100.00;101053.28;5017435;28;45357;-73
2021/09/08 06:10:59;;;;;;;;;28.75;23.50;;;;;22.19;100.00;101054.31;5017109;28;45460;-72
2021/09/08 06:13:24;;;;;;;;;21.00;19.75;;;;;22.28;100.00;101060.91;5017503;28;45342;-71
2021/09/08 06:15:50;;;;;;;;;25.25;22.00;;;;;22.27;100.00;101048.53;5017405;28;45491;-72
2021/09/08 06:18:15;;;;;;;;;23.75;22.00;;;;;22.11;100.00;101016.66;5023663;28;45477;-74
2021/09/08 06:20:41;;;;;;;;;20.00;19.25;;;;;22.26;100.00;101042.38;5021066;28;45556;-75
2021/09/08 06:23:06;;;;;;;;;18.50;17.75;;;;;22.30;100.00;101051.03;5018522;28;45705;-75
2021/09/08 06:25:31;;;;;;;;;20.00;18.50;;;;;22.33;100.00;101049.97;5017359;28;45384;-74
2021/09/08 06:27:57;;;;;;;;;20.75;17.50;;;;;22.34;100.00;101041.06;5022044;28;45533;-74
2021/09/08 06:30:23;;;;;;;;;20.00;18.75;;;;;22.36;100.00;101040.00;5014213;28;45475;-73
2021/09/08 06:32:48;;;;;;;;;21.75;20.75;;;;;22.41;100.00;101042.44;5015226;28;45394;-73
2021/09/08 06:35:14;;;;;;;;;20.00;18.75;;;;;22.41;100.00;101037.97;5024711;28;45397;-75
2021/09/08 06:37:39;;;;;;;;;21.75;20.25;;;;;22.44;100.00;101043.09;5016792;28;45449;-75
2021/09/08 06:40:05;;;;;;;;;23.50;21.50;;;;;22.50;100.00;101042.72;5017355;28;45381;-75
2021/09/08 06:42:31;;;;;;;;;26.75;24.00;;;;;22.38;100.00;101016.84;5017985;28;45218;-75
2021/09/08 06:44:56;;;;;;;;;22.00;21.25;;;;;22.49;100.00;101022.41;5017873;28;45516;-74
2021/09/08 06:47:24;;;;;;;;;24.50;23.00;;;;;22.58;100.00;101027.16;5020914;28;45338;-74
2021/09/08 06:49:51;;;;;;;;;24.00;23.50;;;;;22.68;100.00;101032.81;4999196;28;45348;-76
2021/09/08 06:52:16;;;;;;;;;23.75;22.00;;;;;22.70;100.00;101038.88;5021989;28;45460;-75
2021/09/08 06:54:42;;;;;;;;;23.25;21.50;;;;;22.78;100.00;101041.06;5018220;28;45552;-76
2021/09/08 06:57:09;;;;;;;;;21.50;20.75;;;;;22.82;100.00;101029.31;5008492;28;47499;-75
2021/09/08 06:59:35;;;;;;;;;24.75;23.00;;;;;22.76;100.00;101011.88;5018624;28;45346;-75
2021/09/08 07:02:00;;;;;;;;;23.25;21.25;;;;;22.82;100.00;101013.34;5016691;28;45215;-74
2021/09/08 07:04:26;;;;;;;;;22.50;21.00;;;;;22.90;100.00;101008.44;5018074;28;45419;-76
2021/09/08 07:06:52;;;;;;;;;24.50;22.50;;;;;23.02;100.00;101020.13;4998740;28;46538;-75
2021/09/08 07:09:17;;;;;;;;;23.00;20.50;;;;;23.03;100.00;101012.03;5024189;28;45350;-75
2021/09/08 07:11:43;;;;;;;;;21.00;20.00;;;;;23.06;100.00;101010.97;5016789;28;45301;-75
2021/09/08 07:14:08;;;;;;;;;22.25;19.75;;;;;23.09;100.00;101013.47;5017614;28;45592;-75
2021/09/08 07:16:34;;;;;;;;;22.50;20.50;;;;;23.11;100.00;101000.94;5016471;28;45522;-74
2021/09/08 07:18:59;;;;;;;;;21.75;21.00;;;;;23.17;100.00;101004.06;5017672;28;45433;-74
2021/09/08 07:21:24;;;;;;;;;24.50;21.50;;;;;23.25;100.00;101013.38;5028727;28;45528;-74
2021/09/08 07:23:50;;;;;;;;;23.50;19.75;;;;;23.33;100.00;101017.28;4999827;28;45653;-75
2021/09/08 07:26:15;;;;;;;;;22.50;21.75;;;;;23.41;100.00;101012.31;5016890;28;46573;-75
2021/09/08 07:28:41;;;;;;;;;25.25;22.50;;;;;23.46;100.00;101010.19;5016419;28;45453;-75
2021/09/08 07:31:06;;;;;;;;;25.75;20.75;;;;;23.52;100.00;101003.63;5017077;28;45473;-73
2021/09/08 07:33:32;;;;;;;;;26.75;22.25;;;;;23.57;100.00;101004.22;5016090;28;45587;-74
2021/09/08 07:35:57;;;;;;;;;23.50;21.75;;;;;23.71;100.00;101003.31;5027865;28;45480;-76
2021/09/08 07:38:24;;;;;;;;;22.50;20.75;;;;;23.75;100.00;100981.69;5016373;28;45439;-73
2021/09/08 07:40:50;;;;;;;;;21.25;19.75;;;;;24.05;100.00;100994.84;5024157;28;45582;-73
2021/09/08 07:43:15;;;;;;;;;28.00;24.00;;;;;24.21;100.00;100996.44;4989605;28;45497;-73
2021/09/08 07:45:41;;;;;;;;;22.00;19.75;;;;;24.34;100.00;100990.22;4995962;28;46501;-73
2021/09/08 07:48:06;;;;;;;;;20.25;20.25;;;;;24.56;100.00;101002.13;5011566;28;45385;-73
2021/09/08 07:50:31;;;;;;;;;22.00;19.00;;;;;24.75;100.00;100999.91;4996293;28;45309;-74
2021/09/08 07:52:57;;;;;;;;;20.00;17.50;;;;;24.91;100.00;100992.53;4968784;28;45448;-75
2021/09/08 07:55:23;;;;;;;;;20.25;20.00;;;;;25.09;100.00;100984.19;4993330;28;47095;-74
2021/09/08 07:57:48;;;;;;;;;25.75;22.75;;;;;25.34;100.00;100997.50;5004808;28;45370;-74
2021/09/08 08:00:14;;;;;;;;;18.25;17.75;;;;;25.51;100.00;100999.81;4995853;28;45604;-73
2021/09/08 08:02:50;;;;;;;;;22.00;19.00;;;;;25.73;100.00;100999.16;5001713;28;45545;-73
2021/09/08 08:05:17;;;;;;;;;17.75;17.75;;;;;25.82;100.00;100977.09;4995895;28;46559;-74
2021/09/08 08:07:44;;;;;;;;;22.25;19.25;;;;;26.05;99.31;100987.88;4997822;28;45389;-74
2021/09/08 08:10:10;;;;;;;;;18.50;18.25;;;;;26.25;99.65;100989.88;4989096;28;45356;-74
2021/09/08 08:12:35;;;;;;;;;24.00;21.00;;;;;26.50;98.85;100995.13;4996075;28;45412;-74
2021/09/08 08:15:01;;;;;;;;;22.00;18.00;;;;;26.76;97.29;100992.25;5004522;28;46557;-73
2021/09/08 08:17:27;;;;;;;;;21.50;17.50;;;;;26.92;96.01;100979.34;4997607;28;45280;-75
2021/09/08 08:19:52;;;;;;;;;18.50;15.25;;;;;27.17;94.65;100980.13;5009665;28;45232;-73
2021/09/08 08:22:19;;;;;;;;;20.00;19.00;;;;;27.37;93.99;100992.75;5001302;28;45425;-74
2021/09/08 08:24:44;;;;;;;;;17.25;16.00;;;;;27.46;92.66;100981.31;5004143;28;46331;-74
2021/09/08 08:27:10;;;;;;;;;18.25;17.25;;;;;27.71;92.92;100985.56;5007255;28;45360;-74
2021/09/08 08:29:35;;;;;;;;;21.25;18.75;;;;;27.97;91.37;100991.44;5001052;28;45461;-74
2021/09/08 08:32:01;;;;;;;;;19.25;17.50;;;;;28.14;90.06;100981.97;5001400;28;45443;-73
2021/09/08 08:34:27;;;;;;;;;19.75;19.25;;;;;28.33;90.24;100983.03;5010959;28;45792;-74
2021/09/08 08:36:52;;;;;;;;;17.00;16.25;;;;;28.57;89.01;100982.75;5010059;28;45371;-73
2021/09/08 08:39:18;;;;;;;;;18.25;15.25;;;;;28.79;88.31;100981.75;5000146;28;45385;-74
2021/09/08 08:41:44;;;;;;;;;20.50;20.00;;;;;28.95;86.56;100982.13;4999257;28;45348;-73
2021/09/08 08:44:10;;;;;;;;;18.75;16.75;;;;;29.06;86.06;100978.50;5020131;28;45702;-74
2021/09/08 08:46:36;;;;;;;;;19.50;18.25;;;;;29.21;86.80;100973.63;5019976;28;45346;-74
2021/09/08 08:49:02;;;;;;;;;17.50;16.00;;;;;29.40;85.71;100976.34;5019701;28;45457;-73
2021/09/08 08:51:27;;;;;;;;;19.50;18.25;;;;;29.67;85.05;100977.59;5020100;28;45418;-74
2021/09/08 08:53:53;;;;;;;;;18.50;18.00;;;;;29.97;83.96;100974.78;5022781;28;46963;-75
2021/09/08 08:56:19;;;;;;;;;18.50;18.00;;;;;30.16;82.58;100963.19;5018654;28;45580;-74
2021/09/08 08:58:44;;;;;;;;;19.00;18.25;;;;;30.33;81.97;100956.22;5023389;28;45508;-74
2021/09/08 09:01:14;;;;;;;;;19.50;18.50;;;;;30.61;81.56;100962.56;5019889;28;45487;-74
2021/09/08 09:03:39;;;;;;;;;21.25;20.50;;;;;30.91;80.91;100954.22;5018833;28;45410;-74
2021/09/08 09:06:05;;;;;;;;;18.75;16.50;;;;;31.20;79.54;100950.56;5024142;28;45392;-73
2021/09/08 09:08:34;;;;;;;;;19.75;18.00;;;;;31.55;78.80;100955.19;5025060;28;45415;-71
2021/09/08 09:11:00;;;;;;;;;20.00;17.50;;;;;31.87;77.90;100941.19;5022082;28;45419;-73
2021/09/08 09:13:33;;;;;;;;;16.50;15.00;;;;;32.27;76.34;100948.84;5025984;28;47179;-74
2021/09/08 09:16:09;;;;;;;;;17.25;17.00;;;;;32.62;74.38;100941.66;5003522;28;45876;-73
2021/09/08 09:18:43;;;;;;;;;19.50;18.25;;;;;32.99;74.17;100934.06;5019436;28;45506;-73
2021/09/08 09:21:13;;;;;;;;;21.50;15.25;;;;;33.40;73.23;100943.22;5031452;28;45298;-73
2021/09/08 09:23:50;;;;;;;;;19.75;17.25;;;;;33.95;71.98;100933.69;5023950;28;46560;-73
2021/09/08 09:26:22;;;;;;;;;17.75;17.75;;;;;34.53;69.65;100927.22;5018319;28;45396;-74
2021/09/08 09:28:49;;;;;;;;;17.50;17.00;;;;;35.22;67.40;100933.78;5019000;28;45437;-73
2021/09/08 09:31:19;;;;;;;;;15.25;15.00;;;;;35.90;64.36;100933.06;5017938;28;45318;-73
2021/09/08 09:33:51;;;;;;;;;20.25;17.50;;;;;36.50;62.73;100926.75;5021381;28;45517;-73
2021/09/08 09:36:20;;;;;;;;;16.50;15.50;;;;;37.11;60.64;100941.00;5000044;28;45395;-72
2021/09/08 09:38:48;;;;;;;;;18.50;16.00;;;;;37.46;57.57;100919.47;5019166;28;45457;-74
2021/09/08 09:41:20;;;;;;;;;15.25;14.00;;;;;37.70;56.23;100919.09;5024120;28;45465;-72
2021/09/08 09:43:46;;;;;;;;;19.25;17.25;;;;;37.73;55.05;100929.63;5000896;28;46000;-72
2021/09/08 09:46:13;;;;;;;;;16.50;15.75;;;;;37.49;54.98;100932.69;5010186;28;45451;-72
2021/09/08 09:48:39;;;;;;;;;15.75;15.00;;;;;37.17;55.81;100931.25;4999874;28;45384;-72
2021/09/08 09:51:05;;;;;;;;;17.00;16.25;;;;;36.87;56.04;100925.00;5000810;28;45439;-73
2021/09/08 09:53:32;;;;;;;;;17.75;15.25;;;;;36.66;57.82;100921.09;4998181;28;45497;-73
2021/09/08 09:55:59;;;;;;;;;18.00;17.00;;;;;36.54;57.48;100922.63;5013657;28;45659;-72
2021/09/08 09:58:25;;;;;;;;;19.75;17.75;;;;;36.38;56.99;100918.19;4997461;28;45529;-73
2021/09/08 10:00:54;;;;;;;;;16.00;15.00;;;;;36.52;56.70;100927.41;4998488;28;45550;-73
2021/09/08 10:03:21;;;;;;;;;14.00;12.75;;;;;36.93;55.60;100916.09;5005266;28;47114;-73
2021/09/08 10:05:47;;;;;;;;;18.50;17.25;;;;;37.54;54.45;100920.16;4979775;28;45424;-73
2021/09/08 10:08:17;;;;;;;;;18.50;18.25;;;;;38.26;52.83;100921.94;4998724;28;45569;-73
2021/09/08 10:10:46;;;;;;;;;20.25;17.25;;;;;38.87;50.64;100913.94;4997516;28;45891;-73
2021/09/08 10:13:26;;;;;;;;;21.75;18.25;;;;;39.62;49.19;100931.28;4997274;28;45525;-73
2021/09/08 10:15:53;;;;;;;;;18.50;16.75;;;;;40.12;47.04;100929.03;4997838;28;45520;-71
2021/09/08 10:18:24;;;;;;;;;19.25;18.75;;;;;40.57;45.26;100924.59;4998742;28;45384;-72
2021/09/08 10:21:11;;;;;;;;;17.75;15.00;;;;;41.18;44.05;100925.00;4998440;28;45613;-71
2021/09/08 10:23:46;;;;;;;;;15.25;15.25;;;;;41.92;43.02;100915.31;4997266;28;45411;-71
2021/09/08 10:26:18;;;;;;;;;18.00;17.00;;;;;42.76;40.38;100913.88;4990438;28;46085;-71
2021/09/08 10:28:45;;;;;;;;;18.50;16.75;;;;;43.31;39.31;100917.44;4999801;28;45324;-72
2021/09/08 10:31:13;;;;;;;;;17.00;16.00;;;;;43.84;38.10;100910.31;4981766;28;45933;-73
2021/09/08 10:33:41;;;;;;;;;16.75;16.75;;;;;44.33;37.34;100897.19;4998000;28;45422;-73
2021/09/08 10:36:11;;;;;;;;;15.75;15.75;;;;;44.74;36.57;100907.22;4994654;28;45546;-74
2021/09/08 10:38:36;;;;;;;;;17.50;17.50;;;;;45.05;36.38;100903.22;4998078;28;45462;-74
2021/09/08 10:41:07;;;;;;;;;21.00;18.00;;;;;45.51;35.19;100896.66;4986055;28;45911;-72
2021/09/08 10:43:37;;;;;;;;;20.00;17.50;;;;;46.18;34.09;100904.16;4996628;28;46874;-72
2021/09/08 10:46:04;;;;;;;;;16.25;15.50;;;;;46.80;32.81;100901.97;5004387;28;45451;-74
2021/09/08 10:48:39;;;;;;;;;18.50;18.00;;;;;47.48;31.50;100902.47;5001457;28;45470;-72
2021/09/08 10:51:07;;;;;;;;;19.75;19.00;;;;;47.78;30.64;100879.78;5003463;28;45372;-73
2021/09/08 10:53:34;;;;;;;;;18.50;18.00;;;;;48.16;30.87;100884.22;4997357;28;46325;-73
2021/09/08 10:56:01;;;;;;;;;19.00;19.00;;;;;48.40;30.07;100885.47;5002950;28;45616;-75
2021/09/08 10:58:57;;;;;;;;;15.75;15.00;;;;;48.37;29.92;100880.47;5008704;28;45461;-74
2021/09/08 11:01:23;;;;;;;;;19.25;17.75;;;;;48.42;29.88;100880.50;4989923;28;45395;-74
2021/09/08 11:03:49;;;;;;;;;18.25;17.00;;;;;48.74;29.20;100880.41;4996378;28;46260;-72